createdAt,value
2022-12-25T00:00:07.451Z,1002.55
2022-12-25T00:00:20.884Z,1002.48
2022-12-25T00:00:27.424Z,1002.50
2022-12-25T00:00:37.408Z,1002.48
2022-12-25T00:00:47.485Z,1002.48
2022-12-25T00:00:58.307Z,1002.51
2022-12-25T00:01:07.467Z,1002.50
2022-12-25T00:01:17.472Z,1002.47
2022-12-25T00:01:27.345Z,1002.50
2022-12-25T00:01:37.342Z,1002.49
2022-12-25T00:01:47.344Z,1002.45
2022-12-25T00:01:58.233Z,1002.48
2022-12-25T00:02:07.343Z,1002.46
2022-12-25T00:02:17.389Z,1002.50
2022-12-25T00:02:27.473Z,1002.50
2022-12-25T00:02:37.479Z,1002.49
2022-12-25T00:02:47.438Z,1002.48
2022-12-25T00:02:57.435Z,1002.46
2022-12-25T00:03:07.528Z,1002.48
2022-12-25T00:03:17.467Z,1002.51
2022-12-25T00:03:27.492Z,1002.48
2022-12-25T00:03:37.543Z,1002.50
2022-12-25T00:03:47.507Z,1002.48
2022-12-25T00:03:57.581Z,1002.48
2022-12-25T00:04:07.544Z,1002.49
2022-12-25T00:04:17.326Z,1002.47
2022-12-25T00:04:27.390Z,1002.48
2022-12-25T00:04:37.325Z,1002.46
2022-12-25T00:04:47.325Z,1002.49
2022-12-25T00:04:57.321Z,1002.47
2022-12-25T00:05:07.335Z,1002.47
2022-12-25T00:05:17.316Z,1002.45
2022-12-25T00:05:28.224Z,1002.47
2022-12-25T00:05:37.331Z,1002.41
2022-12-25T00:05:47.317Z,1002.47
2022-12-25T00:05:57.332Z,1002.49
2022-12-25T00:06:07.344Z,1002.47
2022-12-25T00:06:17.328Z,1002.48
2022-12-25T00:06:27.329Z,1002.45
2022-12-25T00:06:38.223Z,1002.45
2022-12-25T00:06:47.310Z,1002.47
2022-12-25T00:06:57.308Z,1002.44
2022-12-25T00:07:07.307Z,1002.43
2022-12-25T00:07:17.315Z,1002.43
2022-12-25T00:07:27.318Z,1002.41
2022-12-25T00:07:37.309Z,1002.42
2022-12-25T00:07:47.326Z,1002.47
2022-12-25T00:07:57.312Z,1002.46
2022-12-25T00:08:07.315Z,1002.41
2022-12-25T00:08:17.402Z,1002.48
2022-12-25T00:08:27.308Z,1002.47
2022-12-25T00:08:37.344Z,1002.41
2022-12-25T00:08:47.301Z,1002.39
2022-12-25T00:08:57.316Z,1002.39
2022-12-25T00:09:08.224Z,1002.39
2022-12-25T00:09:17.322Z,1002.42
2022-12-25T00:09:27.302Z,1002.46
2022-12-25T00:09:37.319Z,1002.43
2022-12-25T00:09:48.259Z,1002.45
2022-12-25T00:09:57.297Z,1002.39
2022-12-25T00:10:07.393Z,1002.37
2022-12-25T00:10:17.301Z,1002.38
2022-12-25T00:10:27.300Z,1002.38
2022-12-25T00:10:43.015Z,1002.41
2022-12-25T00:10:47.315Z,1002.39
2022-12-25T00:10:57.306Z,1002.37
2022-12-25T00:11:07.407Z,1002.37
2022-12-25T00:11:17.310Z,1002.38
2022-12-25T00:11:28.233Z,1002.34
2022-12-25T00:11:37.308Z,1002.37
2022-12-25T00:11:47.291Z,1002.36
2022-12-25T00:11:58.237Z,1002.38
2022-12-25T00:12:07.290Z,1002.37
2022-12-25T00:12:17.300Z,1002.36
2022-12-25T00:12:28.234Z,1002.35
2022-12-25T00:12:37.289Z,1002.36
2022-12-25T00:12:47.310Z,1002.36
2022-12-25T00:12:57.298Z,1002.33
2022-12-25T00:13:07.284Z,1002.38
2022-12-25T00:13:17.289Z,1002.35
2022-12-25T00:13:27.338Z,1002.35
2022-12-25T00:13:37.293Z,1002.36
2022-12-25T00:13:47.316Z,1002.35
2022-12-25T00:13:57.293Z,1002.36
2022-12-25T00:14:07.287Z,1002.31
2022-12-25T00:14:17.295Z,1002.37
2022-12-25T00:14:27.286Z,1002.36
2022-12-25T00:14:37.280Z,1002.32
2022-12-25T00:14:47.291Z,1002.33
2022-12-25T00:14:57.292Z,1002.36
2022-12-25T00:15:07.279Z,1002.36
2022-12-25T00:15:17.337Z,1002.35
2022-12-25T00:15:27.296Z,1002.37
2022-12-25T00:15:37.276Z,1002.32
2022-12-25T00:15:47.320Z,1002.31
2022-12-25T00:15:57.309Z,1002.34
2022-12-25T00:16:07.320Z,1002.30
2022-12-25T00:16:17.326Z,1002.36
2022-12-25T00:16:27.413Z,1002.32
2022-12-25T00:16:38.389Z,1002.31
2022-12-25T00:16:47.359Z,1002.34
2022-12-25T00:16:57.278Z,1002.35
2022-12-25T00:17:07.276Z,1002.32
2022-12-25T00:17:17.291Z,1002.31
2022-12-25T00:17:27.270Z,1002.31
2022-12-25T00:17:37.300Z,1002.32
2022-12-25T00:17:47.290Z,1002.29
2022-12-25T00:17:57.274Z,1002.26
2022-12-25T00:18:07.371Z,1002.31
2022-12-25T00:18:17.290Z,1002.29
2022-12-25T00:18:27.268Z,1002.31
2022-12-25T00:18:37.324Z,1002.29
2022-12-25T00:18:47.270Z,1002.30
2022-12-25T00:18:57.339Z,1002.29
2022-12-25T00:19:07.263Z,1002.30
2022-12-25T00:19:17.267Z,1002.29
2022-12-25T00:19:28.289Z,1002.32
2022-12-25T00:19:37.338Z,1002.34
2022-12-25T00:19:47.268Z,1002.30
2022-12-25T00:19:57.256Z,1002.32
2022-12-25T00:20:07.434Z,1002.37
2022-12-25T00:20:18.542Z,1002.35
2022-12-25T00:20:27.250Z,1002.32
2022-12-25T00:20:37.249Z,1002.32
2022-12-25T00:20:47.267Z,1002.32
2022-12-25T00:20:57.245Z,1002.32
2022-12-25T00:21:07.256Z,1002.32
2022-12-25T00:21:17.262Z,1002.33
2022-12-25T00:21:27.253Z,1002.32
2022-12-25T00:21:37.339Z,1002.33
2022-12-25T00:21:48.237Z,1002.31
2022-12-25T00:21:57.246Z,1002.37
2022-12-25T00:22:07.247Z,1002.32
2022-12-25T00:22:17.317Z,1002.37
2022-12-25T00:22:27.250Z,1002.40
2022-12-25T00:22:37.254Z,1002.30
2022-12-25T00:22:47.266Z,1002.36
2022-12-25T00:22:57.254Z,1002.34
2022-12-25T00:23:07.280Z,1002.34
2022-12-25T00:23:17.242Z,1002.35
2022-12-25T00:23:28.263Z,1002.37
2022-12-25T00:23:40.285Z,1002.37
2022-12-25T00:23:47.287Z,1002.33
2022-12-25T00:23:57.238Z,1002.34
2022-12-25T00:24:07.235Z,1002.36
2022-12-25T00:24:17.240Z,1002.39
2022-12-25T00:24:27.237Z,1002.43
2022-12-25T00:24:37.327Z,1002.41
2022-12-25T00:24:47.247Z,1002.41
2022-12-25T00:24:57.269Z,1002.39
2022-12-25T00:25:08.240Z,1002.43
2022-12-25T00:25:17.235Z,1002.43
2022-12-25T00:25:27.231Z,1002.45
2022-12-25T00:25:37.235Z,1002.45
2022-12-25T00:25:47.255Z,1002.44
2022-12-25T00:25:57.241Z,1002.45
2022-12-25T00:26:07.224Z,1002.43
2022-12-25T00:26:17.263Z,1002.47
2022-12-25T00:26:28.268Z,1002.49
2022-12-25T00:26:37.230Z,1002.47
2022-12-25T00:26:47.242Z,1002.46
2022-12-25T00:26:57.241Z,1002.47
2022-12-25T00:27:07.238Z,1002.47
2022-12-25T00:27:17.250Z,1002.45
2022-12-25T00:27:27.220Z,1002.44
2022-12-25T00:27:37.223Z,1002.47
2022-12-25T00:27:47.247Z,1002.45
2022-12-25T00:27:57.217Z,1002.45
2022-12-25T00:28:07.224Z,1002.46
2022-12-25T00:28:17.231Z,1002.44
2022-12-25T00:28:27.219Z,1002.47
2022-12-25T00:28:37.250Z,1002.44
2022-12-25T00:28:47.234Z,1002.52
2022-12-25T00:28:57.269Z,1002.47
2022-12-25T00:29:07.231Z,1002.48
2022-12-25T00:29:17.733Z,1002.53
2022-12-25T00:29:27.212Z,1002.48
2022-12-25T00:29:37.225Z,1002.49
2022-12-25T00:29:47.216Z,1002.50
2022-12-25T00:29:57.214Z,1002.49
2022-12-25T00:30:07.217Z,1002.46
2022-12-25T00:30:17.217Z,1002.45
2022-12-25T00:30:27.217Z,1002.46
2022-12-25T00:30:37.759Z,1002.49
2022-12-25T00:30:47.211Z,1002.47
2022-12-25T00:30:57.309Z,1002.47
2022-12-25T00:31:07.299Z,1002.45
2022-12-25T00:31:17.279Z,1002.49
2022-12-25T00:31:27.865Z,1002.51
2022-12-25T00:31:37.295Z,1002.49
2022-12-25T00:31:47.262Z,1002.47
2022-12-25T00:31:57.308Z,1002.48
2022-12-25T00:32:07.203Z,1002.47
2022-12-25T00:32:17.219Z,1002.46
2022-12-25T00:32:27.204Z,1002.46
2022-12-25T00:32:37.205Z,1002.45
2022-12-25T00:32:47.197Z,1002.46
2022-12-25T00:32:57.734Z,1002.42
2022-12-25T00:33:07.209Z,1002.42
2022-12-25T00:33:17.199Z,1002.43
2022-12-25T00:33:27.754Z,1002.40
2022-12-25T00:33:37.214Z,1002.44
2022-12-25T00:33:47.200Z,1002.40
2022-12-25T00:33:57.234Z,1002.43
2022-12-25T00:34:07.269Z,1002.41
2022-12-25T00:34:17.199Z,1002.35
2022-12-25T00:34:27.196Z,1002.39
2022-12-25T00:34:37.190Z,1002.39
2022-12-25T00:34:47.228Z,1002.40
2022-12-25T00:34:57.192Z,1002.40
2022-12-25T00:35:07.200Z,1002.40
2022-12-25T00:35:17.194Z,1002.42
2022-12-25T00:35:27.194Z,1002.47
2022-12-25T00:35:37.244Z,1002.43
2022-12-25T00:35:47.199Z,1002.42
2022-12-25T00:35:57.203Z,1002.41
2022-12-25T00:36:07.191Z,1002.40
2022-12-25T00:36:17.268Z,1002.42
2022-12-25T00:36:27.199Z,1002.42
2022-12-25T00:36:41.629Z,1002.41
2022-12-25T00:36:47.189Z,1002.43
2022-12-25T00:36:57.186Z,1002.43
2022-12-25T00:37:07.180Z,1002.40
2022-12-25T00:37:17.287Z,1002.42
2022-12-25T00:37:27.178Z,1002.45
2022-12-25T00:37:37.725Z,1002.45
2022-12-25T00:37:47.736Z,1002.41
2022-12-25T00:37:57.174Z,1002.45
2022-12-25T00:38:07.175Z,1002.40
2022-12-25T00:38:17.216Z,1002.41
2022-12-25T00:38:27.188Z,1002.43
2022-12-25T00:38:37.209Z,1002.50
2022-12-25T00:38:47.177Z,1002.44
2022-12-25T00:38:57.197Z,1002.52
2022-12-25T00:39:07.209Z,1002.47
2022-12-25T00:39:17.219Z,1002.44
2022-12-25T00:39:27.176Z,1002.47
2022-12-25T00:39:37.189Z,1002.45
2022-12-25T00:39:47.179Z,1002.46
2022-12-25T00:39:57.182Z,1002.48
2022-12-25T00:40:07.185Z,1002.40
2022-12-25T00:40:17.176Z,1002.42
2022-12-25T00:40:29.730Z,1002.42
2022-12-25T00:40:37.178Z,1002.42
2022-12-25T00:40:47.172Z,1002.42
2022-12-25T00:40:57.283Z,1002.44
2022-12-25T00:41:07.169Z,1002.39
2022-12-25T00:41:17.170Z,1002.45
2022-12-25T00:41:27.724Z,1002.45
2022-12-25T00:41:37.167Z,1002.42
2022-12-25T00:41:47.260Z,1002.42
2022-12-25T00:41:57.218Z,1002.41
2022-12-25T00:42:07.167Z,1002.40
2022-12-25T00:42:17.160Z,1002.40
2022-12-25T00:42:27.727Z,1002.44
2022-12-25T00:42:37.186Z,1002.41
2022-12-25T00:42:47.167Z,1002.43
2022-12-25T00:42:57.204Z,1002.45
2022-12-25T00:43:07.157Z,1002.44
2022-12-25T00:43:17.255Z,1002.49
2022-12-25T00:43:27.151Z,1002.44
2022-12-25T00:43:37.155Z,1002.45
2022-12-25T00:43:47.176Z,1002.47
2022-12-25T00:43:57.164Z,1002.45
2022-12-25T00:44:07.161Z,1002.46
2022-12-25T00:44:17.161Z,1002.46
2022-12-25T00:44:27.229Z,1002.42
2022-12-25T00:44:37.735Z,1002.51
2022-12-25T00:44:47.145Z,1002.46
2022-12-25T00:44:57.168Z,1002.48
2022-12-25T00:45:07.154Z,1002.47
2022-12-25T00:45:17.150Z,1002.43
2022-12-25T00:45:27.212Z,1002.50
2022-12-25T00:45:37.228Z,1002.48
2022-12-25T00:45:47.266Z,1002.52
2022-12-25T00:45:57.810Z,1002.51
2022-12-25T00:46:07.241Z,1002.48
2022-12-25T00:46:17.264Z,1002.51
2022-12-25T00:46:27.252Z,1002.51
2022-12-25T00:46:37.411Z,1002.49
2022-12-25T00:46:47.197Z,1002.53
2022-12-25T00:46:57.246Z,1002.49
2022-12-25T00:47:07.251Z,1002.51
2022-12-25T00:47:17.218Z,1002.48
2022-12-25T00:47:27.280Z,1002.53
2022-12-25T00:47:37.140Z,1002.49
2022-12-25T00:47:47.136Z,1002.50
2022-12-25T00:47:57.206Z,1002.52
2022-12-25T00:48:07.130Z,1002.53
2022-12-25T00:48:17.167Z,1002.50
2022-12-25T00:48:27.135Z,1002.51
2022-12-25T00:48:37.134Z,1002.47
2022-12-25T00:48:47.156Z,1002.52
2022-12-25T00:48:57.165Z,1002.48
2022-12-25T00:49:07.248Z,1002.49
2022-12-25T00:49:17.131Z,1002.49
2022-12-25T00:49:27.132Z,1002.46
2022-12-25T00:49:37.285Z,1002.50
2022-12-25T00:49:47.148Z,1002.51
2022-12-25T00:49:57.153Z,1002.51
2022-12-25T00:50:07.229Z,1002.51
2022-12-25T00:50:17.723Z,1002.53
2022-12-25T00:50:27.122Z,1002.47
2022-12-25T00:50:37.134Z,1002.47
2022-12-25T00:50:47.128Z,1002.45
2022-12-25T00:50:57.172Z,1002.41
2022-12-25T00:51:07.162Z,1002.42
2022-12-25T00:51:17.131Z,1002.44
2022-12-25T00:51:27.121Z,1002.45
2022-12-25T00:51:37.754Z,1002.45
2022-12-25T00:51:47.125Z,1002.41
2022-12-25T00:51:57.159Z,1002.38
2022-12-25T00:52:07.124Z,1002.41
2022-12-25T00:52:17.125Z,1002.36
2022-12-25T00:52:27.134Z,1002.38
2022-12-25T00:52:37.132Z,1002.31
2022-12-25T00:52:47.122Z,1002.37
2022-12-25T00:52:57.778Z,1002.34
2022-12-25T00:53:07.120Z,1002.34
2022-12-25T00:53:17.130Z,1002.38
2022-12-25T00:53:27.121Z,1002.37
2022-12-25T00:53:37.168Z,1002.34
2022-12-25T00:53:47.135Z,1002.36
2022-12-25T00:53:57.726Z,1002.34
2022-12-25T00:54:07.202Z,1002.36
2022-12-25T00:54:17.137Z,1002.37
2022-12-25T00:54:27.190Z,1002.36
2022-12-25T00:54:37.115Z,1002.37
2022-12-25T00:54:47.188Z,1002.37
2022-12-25T00:54:57.148Z,1002.38
2022-12-25T00:55:07.112Z,1002.38
2022-12-25T00:55:17.125Z,1002.34
2022-12-25T00:55:27.102Z,1002.36
2022-12-25T00:55:37.103Z,1002.37
2022-12-25T00:55:49.722Z,1002.35
2022-12-25T00:55:57.104Z,1002.38
2022-12-25T00:56:07.111Z,1002.40
2022-12-25T00:56:17.107Z,1002.33
2022-12-25T00:56:27.145Z,1002.37
2022-12-25T00:56:37.100Z,1002.34
2022-12-25T00:56:47.121Z,1002.38
2022-12-25T00:56:57.102Z,1002.43
2022-12-25T00:57:07.116Z,1002.37
2022-12-25T00:57:17.214Z,1002.37
2022-12-25T00:57:27.096Z,1002.35
2022-12-25T00:57:37.096Z,1002.35
2022-12-25T00:57:47.100Z,1002.36
2022-12-25T00:57:57.111Z,1002.35
2022-12-25T00:58:07.105Z,1002.37
2022-12-25T00:58:17.112Z,1002.35
2022-12-25T00:58:27.114Z,1002.34
2022-12-25T00:58:37.846Z,1002.34
2022-12-25T00:58:47.108Z,1002.37
2022-12-25T00:58:57.144Z,1002.36
2022-12-25T00:59:07.101Z,1002.34
2022-12-25T00:59:17.166Z,1002.31
2022-12-25T00:59:27.099Z,1002.34
2022-12-25T00:59:37.092Z,1002.32
2022-12-25T00:59:47.156Z,1002.32
2022-12-25T00:59:57.374Z,1002.34
2022-12-25T01:00:07.090Z,1002.36
2022-12-25T01:00:17.085Z,1002.35
2022-12-25T01:00:27.116Z,1002.33
2022-12-25T01:00:37.159Z,1002.35
2022-12-25T01:00:47.141Z,1002.32
2022-12-25T01:00:57.286Z,1002.32
2022-12-25T01:01:07.801Z,1002.35
2022-12-25T01:01:17.248Z,1002.33
2022-12-25T01:01:27.289Z,1002.36
2022-12-25T01:01:37.175Z,1002.33
2022-12-25T01:01:47.320Z,1002.34
2022-12-25T01:01:57.210Z,1002.35
2022-12-25T01:02:07.206Z,1002.35
2022-12-25T01:02:17.226Z,1002.34
2022-12-25T01:02:27.278Z,1002.32
2022-12-25T01:02:37.307Z,1002.32
2022-12-25T01:02:47.899Z,1002.35
2022-12-25T01:02:57.285Z,1002.33
2022-12-25T01:03:07.094Z,1002.35
2022-12-25T01:03:17.196Z,1002.34
2022-12-25T01:03:27.217Z,1002.34
2022-12-25T01:03:37.111Z,1002.32
2022-12-25T01:03:47.068Z,1002.37
2022-12-25T01:03:57.072Z,1002.35
2022-12-25T01:04:07.075Z,1002.31
2022-12-25T01:04:17.144Z,1002.32
2022-12-25T01:04:27.069Z,1002.29
2022-12-25T01:04:37.075Z,1002.32
2022-12-25T01:04:47.061Z,1002.31
2022-12-25T01:04:57.151Z,1002.28
2022-12-25T01:05:07.282Z,1002.30
2022-12-25T01:05:17.070Z,1002.33
2022-12-25T01:05:27.080Z,1002.29
2022-12-25T01:05:37.735Z,1002.32
2022-12-25T01:05:47.063Z,1002.29
2022-12-25T01:05:57.061Z,1002.29
2022-12-25T01:06:07.071Z,1002.30
2022-12-25T01:06:17.119Z,1002.30
2022-12-25T01:06:27.061Z,1002.29
2022-12-25T01:06:37.805Z,1002.27
2022-12-25T01:06:47.057Z,1002.31
2022-12-25T01:06:57.105Z,1002.31
2022-12-25T01:07:07.058Z,1002.32
2022-12-25T01:07:17.757Z,1002.28
2022-12-25T01:07:27.065Z,1002.30
2022-12-25T01:07:37.162Z,1002.32
2022-12-25T01:07:47.067Z,1002.27
2022-12-25T01:07:57.052Z,1002.31
2022-12-25T01:08:07.055Z,1002.32
2022-12-25T01:08:17.060Z,1002.38
2022-12-25T01:08:27.173Z,1002.36
2022-12-25T01:08:37.082Z,1002.33
2022-12-25T01:08:47.069Z,1002.31
2022-12-25T01:08:57.044Z,1002.36
2022-12-25T01:09:07.056Z,1002.35
2022-12-25T01:09:17.047Z,1002.40
2022-12-25T01:09:27.041Z,1002.34
2022-12-25T01:09:37.052Z,1002.39
2022-12-25T01:09:47.730Z,1002.36
2022-12-25T01:09:57.064Z,1002.38
2022-12-25T01:10:07.066Z,1002.39
2022-12-25T01:10:17.122Z,1002.37
2022-12-25T01:10:27.052Z,1002.37
2022-12-25T01:10:37.035Z,1002.36
2022-12-25T01:10:47.055Z,1002.33
2022-12-25T01:10:57.059Z,1002.34
2022-12-25T01:11:07.049Z,1002.38
2022-12-25T01:11:17.133Z,1002.38
2022-12-25T01:11:27.035Z,1002.36
2022-12-25T01:11:37.039Z,1002.41
2022-12-25T01:11:47.761Z,1002.37
2022-12-25T01:11:57.052Z,1002.33
2022-12-25T01:12:07.039Z,1002.36
2022-12-25T01:12:17.042Z,1002.35
2022-12-25T01:12:27.047Z,1002.38
2022-12-25T01:12:37.747Z,1002.42
2022-12-25T01:12:47.030Z,1002.36
2022-12-25T01:12:57.046Z,1002.40
2022-12-25T01:13:07.042Z,1002.41
2022-12-25T01:13:17.036Z,1002.38
2022-12-25T01:13:27.036Z,1002.39
2022-12-25T01:13:37.081Z,1002.41
2022-12-25T01:13:47.044Z,1002.39
2022-12-25T01:13:57.732Z,1002.40
2022-12-25T01:14:07.035Z,1002.39
2022-12-25T01:14:17.018Z,1002.39
2022-12-25T01:14:27.737Z,1002.35
2022-12-25T01:14:37.054Z,1002.40
2022-12-25T01:14:47.018Z,1002.37
2022-12-25T01:14:57.053Z,1002.39
2022-12-25T01:15:07.155Z,1002.40
2022-12-25T01:15:17.023Z,1002.36
2022-12-25T01:15:27.315Z,1002.35
2022-12-25T01:15:37.057Z,1002.37
2022-12-25T01:15:47.031Z,1002.35
2022-12-25T01:15:57.075Z,1002.36
2022-12-25T01:16:07.096Z,1002.36
2022-12-25T01:16:17.849Z,1002.37
2022-12-25T01:16:27.126Z,1002.40
2022-12-25T01:16:37.790Z,1002.36
2022-12-25T01:16:47.794Z,1002.37
2022-12-25T01:16:57.151Z,1002.38
2022-12-25T01:17:07.029Z,1002.34
2022-12-25T01:17:17.042Z,1002.40
2022-12-25T01:17:27.018Z,1002.43
2022-12-25T01:17:37.024Z,1002.39
2022-12-25T01:17:47.006Z,1002.44
2022-12-25T01:17:57.032Z,1002.39
2022-12-25T01:18:08.721Z,1002.38
2022-12-25T01:18:17.044Z,1002.35
2022-12-25T01:18:27.074Z,1002.39
2022-12-25T01:18:37.014Z,1002.42
2022-12-25T01:18:47.013Z,1002.37
2022-12-25T01:18:57.739Z,1002.42
2022-12-25T01:19:07.482Z,1002.39
2022-12-25T01:19:17.006Z,1002.45
2022-12-25T01:19:27.022Z,1002.36
2022-12-25T01:19:37.078Z,1002.39
2022-12-25T01:19:47.002Z,1002.40
2022-12-25T01:19:57.103Z,1002.40
2022-12-25T01:20:06.996Z,1002.35
2022-12-25T01:20:17.757Z,1002.39
2022-12-25T01:20:27.010Z,1002.33
2022-12-25T01:20:37.068Z,1002.38
2022-12-25T01:20:47.007Z,1002.35
2022-12-25T01:20:57.755Z,1002.36
2022-12-25T01:21:07.009Z,1002.37
2022-12-25T01:21:16.996Z,1002.36
2022-12-25T01:21:27.016Z,1002.34
2022-12-25T01:21:36.997Z,1002.40
2022-12-25T01:21:46.988Z,1002.35
2022-12-25T01:21:57.000Z,1002.33
2022-12-25T01:22:07.003Z,1002.36
2022-12-25T01:22:17.092Z,1002.38
2022-12-25T01:22:27.021Z,1002.40
2022-12-25T01:22:36.999Z,1002.40
2022-12-25T01:22:47.002Z,1002.35
2022-12-25T01:22:57.006Z,1002.32
2022-12-25T01:23:06.997Z,1002.39
2022-12-25T01:23:16.998Z,1002.34
2022-12-25T01:23:27.001Z,1002.38
2022-12-25T01:23:36.986Z,1002.38
2022-12-25T01:23:47.759Z,1002.40
2022-12-25T01:23:56.985Z,1002.39
2022-12-25T01:24:06.983Z,1002.37
2022-12-25T01:24:16.983Z,1002.34
2022-12-25T01:24:26.984Z,1002.39
2022-12-25T01:24:37.009Z,1002.40
2022-12-25T01:24:46.988Z,1002.36
2022-12-25T01:24:57.015Z,1002.42
2022-12-25T01:25:07.744Z,1002.36
2022-12-25T01:25:16.989Z,1002.32
2022-12-25T01:25:26.975Z,1002.35
2022-12-25T01:25:37.024Z,1002.34
2022-12-25T01:25:47.023Z,1002.32
2022-12-25T01:25:56.982Z,1002.33
2022-12-25T01:26:06.995Z,1002.33
2022-12-25T01:26:16.970Z,1002.33
2022-12-25T01:26:26.979Z,1002.36
2022-12-25T01:26:37.096Z,1002.37
2022-12-25T01:26:46.968Z,1002.33
2022-12-25T01:26:56.964Z,1002.30
2022-12-25T01:27:07.077Z,1002.37
2022-12-25T01:27:16.968Z,1002.27
2022-12-25T01:27:26.998Z,1002.25
2022-12-25T01:27:36.976Z,1002.34
2022-12-25T01:27:46.970Z,1002.29
2022-12-25T01:27:57.748Z,1002.34
2022-12-25T01:28:06.965Z,1002.29
2022-12-25T01:28:17.034Z,1002.27
2022-12-25T01:28:26.972Z,1002.35
2022-12-25T01:28:37.025Z,1002.37
2022-12-25T01:28:46.963Z,1002.30
2022-12-25T01:28:56.975Z,1002.29
2022-12-25T01:29:06.957Z,1002.31
2022-12-25T01:29:17.003Z,1002.32
2022-12-25T01:29:26.959Z,1002.33
2022-12-25T01:29:36.959Z,1002.32
2022-12-25T01:29:46.990Z,1002.32
2022-12-25T01:29:56.956Z,1002.31
2022-12-25T01:30:06.953Z,1002.32
2022-12-25T01:30:16.996Z,1002.30
2022-12-25T01:30:26.961Z,1002.34
2022-12-25T01:30:36.956Z,1002.27
2022-12-25T01:30:47.043Z,1002.32
2022-12-25T01:30:57.000Z,1002.35
2022-12-25T01:31:06.965Z,1002.32
2022-12-25T01:31:17.074Z,1002.31
2022-12-25T01:31:27.052Z,1002.32
2022-12-25T01:31:37.030Z,1002.31
2022-12-25T01:31:46.999Z,1002.31
2022-12-25T01:31:57.027Z,1002.37
2022-12-25T01:32:07.054Z,1002.32
2022-12-25T01:32:16.956Z,1002.33
2022-12-25T01:32:26.946Z,1002.33
2022-12-25T01:32:37.740Z,1002.33
2022-12-25T01:32:46.954Z,1002.34
2022-12-25T01:32:56.942Z,1002.39
2022-12-25T01:33:06.964Z,1002.37
2022-12-25T01:33:16.968Z,1002.35
2022-12-25T01:33:26.947Z,1002.34
2022-12-25T01:33:36.955Z,1002.35
2022-12-25T01:33:46.939Z,1002.37
2022-12-25T01:33:56.940Z,1002.32
2022-12-25T01:34:07.015Z,1002.36
2022-12-25T01:34:16.947Z,1002.34
2022-12-25T01:34:26.943Z,1002.35
2022-12-25T01:34:36.940Z,1002.35
2022-12-25T01:34:51.977Z,1002.33
2022-12-25T01:34:57.013Z,1002.31
2022-12-25T01:35:07.741Z,1002.34
2022-12-25T01:35:16.938Z,1002.33
2022-12-25T01:35:26.943Z,1002.32
2022-12-25T01:35:36.948Z,1002.34
2022-12-25T01:35:46.943Z,1002.38
2022-12-25T01:35:56.955Z,1002.38
2022-12-25T01:36:06.992Z,1002.36
2022-12-25T01:36:16.964Z,1002.35
2022-12-25T01:36:26.931Z,1002.33
2022-12-25T01:36:36.932Z,1002.41
2022-12-25T01:36:46.927Z,1002.36
2022-12-25T01:36:57.018Z,1002.35
2022-12-25T01:37:06.929Z,1002.33
2022-12-25T01:37:16.924Z,1002.35
2022-12-25T01:37:26.927Z,1002.40
2022-12-25T01:37:37.750Z,1002.36
2022-12-25T01:37:46.996Z,1002.38
2022-12-25T01:37:56.933Z,1002.37
2022-12-25T01:38:06.943Z,1002.40
2022-12-25T01:38:17.744Z,1002.41
2022-12-25T01:38:26.939Z,1002.38
2022-12-25T01:38:36.917Z,1002.45
2022-12-25T01:38:46.936Z,1002.45
2022-12-25T01:38:56.914Z,1002.40
2022-12-25T01:39:07.757Z,1002.44
2022-12-25T01:39:16.930Z,1002.51
2022-12-25T01:39:26.917Z,1002.45
2022-12-25T01:39:36.947Z,1002.51
2022-12-25T01:39:46.912Z,1002.49
2022-12-25T01:39:56.933Z,1002.52
2022-12-25T01:40:06.935Z,1002.52
2022-12-25T01:40:16.919Z,1002.56
2022-12-25T01:40:26.928Z,1002.58
2022-12-25T01:40:36.955Z,1002.53
2022-12-25T01:40:46.913Z,1002.55
2022-12-25T01:40:56.922Z,1002.54
2022-12-25T01:41:06.955Z,1002.55
2022-12-25T01:41:17.335Z,1002.56
2022-12-25T01:41:26.939Z,1002.59
2022-12-25T01:41:36.997Z,1002.56
2022-12-25T01:41:46.906Z,1002.61
2022-12-25T01:41:56.977Z,1002.59
2022-12-25T01:42:06.900Z,1002.58
2022-12-25T01:42:16.899Z,1002.61
2022-12-25T01:42:27.746Z,1002.59
2022-12-25T01:42:36.944Z,1002.63
2022-12-25T01:42:46.912Z,1002.59
2022-12-25T01:42:56.904Z,1002.61
2022-12-25T01:43:06.919Z,1002.57
2022-12-25T01:43:18.749Z,1002.61
2022-12-25T01:43:26.894Z,1002.62
2022-12-25T01:43:36.914Z,1002.63
2022-12-25T01:43:46.900Z,1002.62
2022-12-25T01:43:56.928Z,1002.62
2022-12-25T01:44:06.927Z,1002.63
2022-12-25T01:44:16.909Z,1002.61
2022-12-25T01:44:26.892Z,1002.65
2022-12-25T01:44:36.985Z,1002.65
2022-12-25T01:44:46.901Z,1002.63
2022-12-25T01:44:56.971Z,1002.67
2022-12-25T01:45:06.944Z,1002.69
2022-12-25T01:45:16.894Z,1002.65
2022-12-25T01:45:26.916Z,1002.67
2022-12-25T01:45:37.018Z,1002.69
2022-12-25T01:45:46.923Z,1002.73
2022-12-25T01:45:56.918Z,1002.63
2022-12-25T01:46:09.828Z,1002.68
2022-12-25T01:46:16.991Z,1002.67
2022-12-25T01:46:26.962Z,1002.72
2022-12-25T01:46:36.891Z,1002.67
2022-12-25T01:46:46.885Z,1002.68
2022-12-25T01:46:56.882Z,1002.69
2022-12-25T01:47:06.896Z,1002.70
2022-12-25T01:47:16.881Z,1002.74
2022-12-25T01:47:26.909Z,1002.67
2022-12-25T01:47:36.893Z,1002.76
2022-12-25T01:47:46.889Z,1002.69
2022-12-25T01:47:56.896Z,1002.72
2022-12-25T01:48:06.921Z,1002.77
2022-12-25T01:48:16.887Z,1002.81
2022-12-25T01:48:26.872Z,1002.80
2022-12-25T01:48:36.901Z,1002.83
2022-12-25T01:48:46.870Z,1002.76
2022-12-25T01:48:56.950Z,1002.81
2022-12-25T01:49:06.881Z,1002.77
2022-12-25T01:49:16.875Z,1002.76
2022-12-25T01:49:26.875Z,1002.80
2022-12-25T01:49:36.935Z,1002.75
2022-12-25T01:49:46.872Z,1002.75
2022-12-25T01:49:56.877Z,1002.77
2022-12-25T01:50:06.864Z,1002.78
2022-12-25T01:50:17.774Z,1002.77
2022-12-25T01:50:26.875Z,1002.79
2022-12-25T01:50:36.882Z,1002.82
2022-12-25T01:50:46.881Z,1002.80
2022-12-25T01:50:56.897Z,1002.82
2022-12-25T01:51:06.966Z,1002.83
2022-12-25T01:51:16.864Z,1002.80
2022-12-25T01:51:26.871Z,1002.79
2022-12-25T01:51:36.950Z,1002.82
2022-12-25T01:51:46.982Z,1002.85
2022-12-25T01:51:56.884Z,1002.84
2022-12-25T01:52:06.856Z,1002.85
2022-12-25T01:52:21.742Z,1002.87
2022-12-25T01:52:26.865Z,1002.81
2022-12-25T01:52:36.857Z,1002.84
2022-12-25T01:52:46.872Z,1002.87
2022-12-25T01:52:56.936Z,1002.84
2022-12-25T01:53:07.761Z,1002.87
2022-12-25T01:53:16.872Z,1002.83
2022-12-25T01:53:26.865Z,1002.82
2022-12-25T01:53:36.860Z,1002.86
2022-12-25T01:53:46.851Z,1002.82
2022-12-25T01:53:56.857Z,1002.86
2022-12-25T01:54:06.862Z,1002.83
2022-12-25T01:54:16.864Z,1002.86
2022-12-25T01:54:26.888Z,1002.86
2022-12-25T01:54:36.870Z,1002.83
2022-12-25T01:54:46.852Z,1002.85
2022-12-25T01:54:56.854Z,1002.84
2022-12-25T01:55:06.847Z,1002.85
2022-12-25T01:55:16.850Z,1002.80
2022-12-25T01:55:26.843Z,1002.82
2022-12-25T01:55:36.850Z,1002.82
2022-12-25T01:55:46.855Z,1002.80
2022-12-25T01:55:56.909Z,1002.82
2022-12-25T01:56:06.868Z,1002.82
2022-12-25T01:56:16.840Z,1002.86
2022-12-25T01:56:26.860Z,1002.83
2022-12-25T01:56:36.861Z,1002.81
2022-12-25T01:56:47.330Z,1002.84
2022-12-25T01:56:56.847Z,1002.87
2022-12-25T01:57:06.841Z,1002.86
2022-12-25T01:57:17.750Z,1002.86
2022-12-25T01:57:26.978Z,1002.86
2022-12-25T01:57:36.847Z,1002.82
2022-12-25T01:57:46.843Z,1002.85
2022-12-25T01:57:56.836Z,1002.88
2022-12-25T01:58:06.867Z,1002.88
2022-12-25T01:58:16.830Z,1002.82
2022-12-25T01:58:26.843Z,1002.83
2022-12-25T01:58:36.843Z,1002.85
2022-12-25T01:58:46.848Z,1002.81
2022-12-25T01:58:56.836Z,1002.83
2022-12-25T01:59:06.848Z,1002.84
2022-12-25T01:59:16.828Z,1002.85
2022-12-25T01:59:26.839Z,1002.85
2022-12-25T01:59:36.994Z,1002.87
2022-12-25T01:59:46.845Z,1002.85
2022-12-25T01:59:56.924Z,1002.80
2022-12-25T02:00:07.747Z,1002.83
2022-12-25T02:00:16.843Z,1002.83
2022-12-25T02:00:26.845Z,1002.81
2022-12-25T02:00:36.879Z,1002.81
2022-12-25T02:00:46.861Z,1002.82
2022-12-25T02:00:56.900Z,1002.82